Time,TemperatureF,DewpointF,PressureIn,WindDirection,WindDirectionDegrees,WindSpeedMPH,WindSpeedGustMPH,Humidity,HourlyPrecipIn,Conditions,Clouds,dailyrainin,SoftwareType,DateUTC
2013-01-29 00:09:00,70.6,66.0,29.83,South,187,6.0,16.0,85,0.00,,,0.00,weatherlink.com 1.10,2013-01-29 06:09:00,
2013-01-29 00:24:00,70.5,66.0,29.83,South,181,8.0,15.0,85,0.00,,,0.00,weatherlink.com 1.10,2013-01-29 06:24:00,
2013-01-29 00:39:00,70.4,66.0,29.82,South,188,7.0,14.0,85,0.00,,,0.00,weatherlink.com 1.10,2013-01-29 06:39:00,
2013-01-29 00:54:00,70.3,66.0,29.80,SSE,156,5.0,16.0,85,0.00,,,0.00,weatherlink.com 1.10,2013-01-29 06:54:00,
2013-01-29 01:09:00,70.1,66.0,29.80,SE,143,7.0,13.0,86,0.00,,,0.00,weatherlink.com 1.10,2013-01-29 07:09:00,
2013-01-29 01:24:00,70.1,66.0,29.78,SSE,164,5.0,15.0,86,0.00,,,0.00,weatherlink.com 1.10,2013-01-29 07:24:00,
2013-01-29 01:40:00,70.1,66.0,29.77,SSE,154,6.0,12.0,86,0.00,,,0.00,weatherlink.com 1.10,2013-01-29 07:40:00,
2013-01-29 01:54:00,70.1,66.0,29.76,SSE,152,6.0,15.0,86,0.00,,,0.00,weatherlink.com 1.10,2013-01-29 07:54:00,
2013-01-29 02:09:00,70.2,66.0,29.76,South,172,12.0,16.0,85,0.00,,,0.00,weatherlink.com 1.10,2013-01-29 08:09:00,
2013-01-29 02:24:00,70.1,66.0,29.75,SSE,153,8.0,17.0,86,0.00,,,0.00,weatherlink.com 1.10,2013-01-29 08:24:00,
2013-01-29 02:39:00,70.0,66.0,29.75,South,176,8.0,19.0,87,0.00,,,0.00,weatherlink.com 1.10,2013-01-29 08:39:00,
2013-01-29 02:54:00,69.7,66.0,29.75,South,183,8.0,18.0,88,0.00,,,0.00,weatherlink.com 1.10,2013-01-29 08:54:00,
2013-01-29 03:09:00,69.5,66.0,29.75,South,173,9.0,21.0,88,0.00,,,0.00,weatherlink.com 1.10,2013-01-29 09:09:00,
2013-01-29 03:24:00,69.6,66.0,29.74,South,172,4.0,20.0,88,0.00,,,0.00,weatherlink.com 1.10,2013-01-29 09:24:00,
2013-01-29 03:40:00,69.9,66.0,29.74,South,183,11.0,22.0,86,0.00,,,0.00,weatherlink.com 1.10,2013-01-29 09:40:00,
2013-01-29 03:55:00,70.2,66.0,29.73,SSW,195,23.0,25.0,86,0.00,,,0.00,weatherlink.com 1.10,2013-01-29 09:55:00,
2013-01-29 04:10:00,70.3,66.0,29.73,South,185,28.0,28.0,85,0.00,,,0.00,weatherlink.com 1.10,2013-01-29 10:10:00,
2013-01-29 04:25:00,70.2,66.0,29.72,SSE,151,7.0,30.0,86,0.00,,,0.00,weatherlink.com 1.10,2013-01-29 10:25:00,
2013-01-29 04:40:00,70.2,66.0,29.71,SSE,167,7.0,29.0,85,0.00,,,0.00,weatherlink.com 1.10,2013-01-29 10:40:00,
2013-01-29 04:55:00,70.0,66.0,29.71,South,172,11.0,25.0,86,0.00,,,0.00,weatherlink.com 1.10,2013-01-29 10:55:00,
2013-01-29 05:10:00,70.0,65.0,29.70,South,187,12.0,26.0,85,0.00,,,0.00,weatherlink.com 1.10,2013-01-29 11:10:00,
2013-01-29 05:25:00,70.1,65.0,29.70,SSW,195,14.0,25.0,85,0.00,,,0.00,weatherlink.com 1.10,2013-01-29 11:25:00,
2013-01-29 05:40:00,70.1,65.0,29.70,South,185,12.0,30.0,85,0.00,,,0.00,weatherlink.com 1.10,2013-01-29 11:40:00,
2013-01-29 05:55:00,70.2,66.0,29.70,South,181,12.0,26.0,85,0.00,,,0.00,weatherlink.com 1.10,2013-01-29 11:55:00,
2013-01-29 06:10:00,70.1,65.0,29.70,South,170,20.0,27.0,84,0.00,,,0.00,weatherlink.com 1.10,2013-01-29 12:10:00,
2013-01-29 06:25:00,69.9,65.0,29.69,South,181,15.0,22.0,84,0.00,,,0.00,weatherlink.com 1.10,2013-01-29 12:25:00,
2013-01-29 06:40:00,70.1,65.0,29.68,SSE,151,7.0,25.0,83,0.00,,,0.00,weatherlink.com 1.10,2013-01-29 12:40:00,
2013-01-29 06:55:00,70.2,65.0,29.68,South,176,13.0,26.0,83,0.00,,,0.00,weatherlink.com 1.10,2013-01-29 12:55:00,
2013-01-29 07:10:00,70.1,65.0,29.68,South,183,12.0,23.0,84,0.00,,,0.00,weatherlink.com 1.10,2013-01-29 13:10:00,
2013-01-29 07:25:00,69.9,65.0,29.67,SSE,165,8.0,25.0,84,0.00,,,0.00,weatherlink.com 1.10,2013-01-29 13:25:00,
2013-01-29 07:40:00,69.7,65.0,29.67,SSW,195,6.0,17.0,85,0.00,,,0.00,weatherlink.com 1.10,2013-01-29 13:40:00,
2013-01-29 07:55:00,69.7,65.0,29.67,SSE,149,8.0,20.0,85,0.00,,,0.00,weatherlink.com 1.10,2013-01-29 13:55:00,
2013-01-29 08:10:00,70.0,65.0,29.68,South,181,11.0,20.0,85,0.00,,,0.00,weatherlink.com 1.10,2013-01-29 14:10:00,
2013-01-29 08:25:00,70.3,65.0,29.66,SE,139,11.0,20.0,84,0.00,,,0.00,weatherlink.com 1.10,2013-01-29 14:25:00,
2013-01-29 08:40:00,70.5,66.0,29.67,South,173,9.0,21.0,84,0.00,,,0.00,weatherlink.com 1.10,2013-01-29 14:40:00,
2013-01-29 08:55:00,70.7,65.0,29.66,South,187,5.0,19.0,83,0.00,,,0.00,weatherlink.com 1.10,2013-01-29 14:55:00,
2013-01-29 09:10:00,70.9,66.0,29.66,SSE,156,12.0,21.0,83,0.00,,,0.00,weatherlink.com 1.10,2013-01-29 15:10:00,
2013-01-29 09:25:00,71.1,65.0,29.67,South,181,6.0,19.0,82,0.00,,,0.00,weatherlink.com 1.10,2013-01-29 15:25:00,
2013-01-29 09:40:00,71.0,65.0,29.67,SSE,166,12.0,21.0,82,0.00,,,0.00,weatherlink.com 1.10,2013-01-29 15:40:00,
2013-01-29 09:55:00,71.1,65.0,29.67,South,185,12.0,15.0,82,0.00,,,0.00,weatherlink.com 1.10,2013-01-29 15:55:00,
2013-01-29 10:11:00,71.7,66.0,29.66,SSW,212,6.0,20.0,81,0.00,,,0.00,weatherlink.com 1.10,2013-01-29 16:11:00,
2013-01-29 10:26:00,72.6,66.0,29.65,South,186,7.0,19.0,80,0.00,,,0.00,weatherlink.com 1.10,2013-01-29 16:26:00,
2013-01-29 10:40:00,74.2,67.0,29.63,South,179,9.0,26.0,77,0.00,,,0.00,weatherlink.com 1.10,2013-01-29 16:40:00,
2013-01-29 10:55:00,76.4,67.0,29.62,South,187,19.0,25.0,73,0.00,,,0.00,weatherlink.com 1.10,2013-01-29 16:55:00,
2013-01-29 11:10:00,75.8,66.0,29.61,South,189,14.0,28.0,72,0.00,,,0.00,weatherlink.com 1.10,2013-01-29 17:10:00,
2013-01-29 11:26:00,74.7,66.0,29.61,SSE,168,25.0,25.0,74,0.00,,,0.00,weatherlink.com 1.10,2013-01-29 17:26:00,
2013-01-29 11:41:00,76.2,66.0,29.60,SSW,212,11.0,24.0,71,0.00,,,0.00,weatherlink.com 1.10,2013-01-29 17:41:00,
2013-01-29 11:56:00,77.1,66.0,29.58,South,182,18.0,27.0,68,0.00,,,0.00,weatherlink.com 1.10,2013-01-29 17:56:00,
2013-01-29 12:11:00,78.6,66.0,29.57,SSW,192,12.0,30.0,65,0.00,,,0.00,weatherlink.com 1.10,2013-01-29 18:11:00,
2013-01-29 12:26:00,78.4,66.0,29.56,SSE,164,12.0,24.0,65,0.00,,,0.00,weatherlink.com 1.10,2013-01-29 18:26:00,
2013-01-29 12:41:00,79.3,66.0,29.55,SSW,193,11.0,26.0,63,0.00,,,0.00,weatherlink.com 1.10,2013-01-29 18:41:00,
2013-01-29 12:56:00,79.1,65.0,29.53,SSW,193,24.0,26.0,62,0.00,,,0.00,weatherlink.com 1.10,2013-01-29 18:56:00,
2013-01-29 13:11:00,80.7,65.0,29.51,South,184,7.0,21.0,60,0.00,,,0.00,weatherlink.com 1.10,2013-01-29 19:11:00,
2013-01-29 13:26:00,78.9,64.0,29.51,South,190,13.0,23.0,60,0.00,,,0.00,weatherlink.com 1.10,2013-01-29 19:26:00,
2013-01-29 13:41:00,80.7,64.0,29.50,SSW,204,27.0,27.0,58,0.00,,,0.00,weatherlink.com 1.10,2013-01-29 19:41:00,
2013-01-29 13:56:00,79.2,63.0,29.48,SSW,194,13.0,22.0,57,0.00,,,0.00,weatherlink.com 1.10,2013-01-29 19:56:00,
2013-01-29 14:11:00,80.4,63.0,29.49,SSW,213,14.0,22.0,56,0.00,,,0.00,weatherlink.com 1.10,2013-01-29 20:11:00,
2013-01-29 14:26:00,80.2,62.0,29.48,SSW,208,8.0,22.0,54,0.00,,,0.00,weatherlink.com 1.10,2013-01-29 20:26:00,
2013-01-29 14:41:00,79.2,61.0,29.47,South,181,22.0,27.0,54,0.00,,,0.00,weatherlink.com 1.10,2013-01-29 20:41:00,
2013-01-29 14:56:00,79.8,61.0,29.47,South,169,28.0,29.0,53,0.00,,,0.00,weatherlink.com 1.10,2013-01-29 20:56:00,
2013-01-29 15:11:00,79.9,61.0,29.47,SSW,193,9.0,20.0,53,0.00,,,0.00,weatherlink.com 1.10,2013-01-29 21:11:00,
2013-01-29 15:26:00,79.5,61.0,29.47,SSW,195,10.0,20.0,54,0.00,,,0.00,weatherlink.com 1.10,2013-01-29 21:26:00,
2013-01-29 15:41:00,73.2,47.0,29.52,West,263,17.0,25.0,39,0.00,,,0.00,weatherlink.com 1.10,2013-01-29 21:41:00,
2013-01-29 15:56:00,68.1,50.0,29.53,NW,318,6.0,27.0,53,0.00,,,0.00,weatherlink.com 1.10,2013-01-29 21:56:00,
2013-01-29 16:11:00,65.9,51.0,29.53,West,276,7.0,15.0,58,0.00,,,0.00,weatherlink.com 1.10,2013-01-29 22:11:00,
2013-01-29 16:26:00,66.8,50.0,29.55,WNW,292,5.0,15.0,56,0.00,,,0.00,weatherlink.com 1.10,2013-01-29 22:26:00,
2013-01-29 16:41:00,66.5,49.0,29.56,WNW,303,9.0,18.0,53,0.00,,,0.00,weatherlink.com 1.10,2013-01-29 22:41:00,
2013-01-29 16:56:00,65.6,48.0,29.57,NW,307,19.0,26.0,54,0.00,,,0.00,weatherlink.com 1.10,2013-01-29 22:56:00,
2013-01-29 17:11:00,61.4,49.0,29.60,West,270,6.0,16.0,64,0.00,,,0.00,weatherlink.com 1.10,2013-01-29 23:11:00,
2013-01-29 17:26:00,60.0,47.0,29.60,NW,318,7.0,22.0,63,0.00,,,0.00,weatherlink.com 1.10,2013-01-29 23:26:00,
2013-01-29 17:41:00,60.1,45.0,29.61,West,277,6.0,18.0,58,0.00,,,0.00,weatherlink.com 1.10,2013-01-29 23:41:00,
2013-01-29 17:56:00,60.4,44.0,29.61,WNW,282,7.0,18.0,55,0.00,,,0.00,weatherlink.com 1.10,2013-01-29 23:56:00,
2013-01-29 18:11:00,60.7,43.0,29.63,WNW,282,9.0,18.0,52,0.00,,,0.00,weatherlink.com 1.10,2013-01-30 00:11:00,
2013-01-29 18:26:00,60.8,41.0,29.62,WNW,298,8.0,19.0,48,0.00,,,0.00,weatherlink.com 1.10,2013-01-30 00:26:00,
2013-01-29 18:41:00,60.7,42.0,29.63,West,280,6.0,17.0,50,0.00,,,0.00,weatherlink.com 1.10,2013-01-30 00:41:00,
2013-01-29 18:56:00,58.8,41.0,29.63,WNW,282,3.0,12.0,53,0.00,,,0.00,weatherlink.com 1.10,2013-01-30 00:56:00,
2013-01-29 19:11:00,58.5,42.0,29.64,West,268,5.0,14.0,54,0.00,,,0.00,weatherlink.com 1.10,2013-01-30 01:11:00,
2013-01-29 19:26:00,58.7,40.0,29.64,West,274,4.0,13.0,50,0.00,,,0.00,weatherlink.com 1.10,2013-01-30 01:26:00,
2013-01-29 19:42:00,59.3,39.0,29.65,NW,319,11.0,20.0,47,0.00,,,0.00,weatherlink.com 1.10,2013-01-30 01:42:00,
2013-01-29 19:57:00,59.4,38.0,29.66,West,279,10.0,17.0,45,0.00,,,0.00,weatherlink.com 1.10,2013-01-30 01:57:00,
2013-01-29 20:12:00,58.7,37.0,29.67,West,272,5.0,15.0,44,0.00,,,0.00,weatherlink.com 1.10,2013-01-30 02:12:00,
2013-01-29 20:27:00,58.2,36.0,29.68,NW,308,8.0,12.0,43,0.00,,,0.00,weatherlink.com 1.10,2013-01-30 02:27:00,
2013-01-29 20:42:00,58.4,33.0,29.68,WSW,256,13.0,20.0,38,0.00,,,0.00,weatherlink.com 1.10,2013-01-30 02:42:00,
2013-01-29 20:57:00,58.6,31.0,29.69,WNW,284,9.0,19.0,35,0.00,,,0.00,weatherlink.com 1.10,2013-01-30 02:57:00,
2013-01-29 21:12:00,57.7,31.0,29.70,WNW,285,11.0,18.0,37,0.00,,,0.00,weatherlink.com 1.10,2013-01-30 03:12:00,
2013-01-29 21:27:00,57.6,29.0,29.70,WNW,293,16.0,26.0,34,0.00,,,0.00,weatherlink.com 1.10,2013-01-30 03:27:00,
2013-01-29 21:42:00,57.6,26.0,29.71,NW,316,9.0,22.0,30,0.00,,,0.00,weatherlink.com 1.10,2013-01-30 03:42:00,
2013-01-29 21:57:00,56.5,26.0,29.71,WNW,291,11.0,16.0,31,0.00,,,0.00,weatherlink.com 1.10,2013-01-30 03:57:00,
2013-01-29 22:12:00,55.9,25.0,29.73,West,266,8.0,18.0,31,0.00,,,0.00,weatherlink.com 1.10,2013-01-30 04:12:00,
2013-01-29 22:29:00,55.7,25.0,29.74,WNW,291,5.0,17.0,30,0.00,,,0.00,weatherlink.com 1.10,2013-01-30 04:29:00,
2013-01-29 22:42:00,55.3,23.0,29.75,West,280,10.0,21.0,29,0.00,,,0.00,weatherlink.com 1.10,2013-01-30 04:42:00,
2013-01-29 22:57:00,54.4,23.0,29.75,WNW,293,10.0,12.0,29,0.00,,,0.00,weatherlink.com 1.10,2013-01-30 04:57:00,
2013-01-29 23:12:00,54.0,22.0,29.75,WNW,289,6.0,12.0,29,0.00,,,0.00,weatherlink.com 1.10,2013-01-30 05:12:00,
2013-01-29 23:27:00,53.8,22.0,29.77,WNW,301,7.0,11.0,29,0.00,,,0.00,weatherlink.com 1.10,2013-01-30 05:27:00,
2013-01-29 23:42:00,53.3,22.0,29.76,West,260,6.0,14.0,30,0.00,,,0.00,weatherlink.com 1.10,2013-01-30 05:42:00,
2013-01-29 23:57:00,53.1,22.0,29.76,West,281,4.0,16.0,30,0.00,,,0.00,weatherlink.com 1.10,2013-01-30 05:57:00,